Time;durP1;ratioP1;P1;durP2;ratioP2;P2;SDS_P1;SDS_P2;PMS_P1;PMS_P2;Temp;Humidity;BMP_temperature;BMP_pressure;BME280_temperature;BME280_humidity;BME280_pressure;Samples;Min_cycle;Max_cycle;Signal;HPM_P1;HPM_P2
2022/04/08 00:00:19;;;;;;;6.10;1.05;;;5.50;99.90;;;;;;5020458;28;20046;-66
2022/04/08 00:02:44;;;;;;;9.85;1.35;;;5.50;99.90;;;;;;5021471;28;20090;-66
2022/04/08 00:05:10;;;;;;;5.53;0.70;;;5.50;99.90;;;;;;5026423;28;20128;-66
2022/04/08 00:07:36;;;;;;;9.10;0.95;;;5.50;99.90;;;;;;5001801;28;20060;-66
2022/04/08 00:10:06;;;;;;;8.35;0.73;;;5.50;99.90;;;;;;5004495;28;20551;-66
2022/04/08 00:12:32;;;;;;;7.35;0.93;;;5.40;99.90;;;;;;5023976;28;20042;-66
2022/04/08 00:14:58;;;;;;;11.10;1.23;;;5.40;99.90;;;;;;5006951;28;20167;-66
2022/04/08 00:17:25;;;;;;;9.88;1.02;;;5.50;99.90;;;;;;5003399;28;20053;-66
2022/04/08 00:19:50;;;;;;;11.23;1.13;;;5.40;99.90;;;;;;5002683;28;20497;-66
2022/04/08 00:22:18;;;;;;;7.35;1.13;;;5.40;99.90;;;;;;5016488;28;20041;-66
2022/04/08 00:24:44;;;;;;;7.45;0.68;;;5.40;99.90;;;;;;5018815;28;20040;-66
2022/04/08 00:27:10;;;;;;;10.63;1.02;;;5.40;99.90;;;;;;5015089;28;20052;-66
2022/04/08 00:29:36;;;;;;;8.32;0.82;;;5.40;99.90;;;;;;5018634;28;20034;-65
2022/04/08 00:32:02;;;;;;;5.57;0.93;;;5.40;99.90;;;;;;5018969;28;20037;-65
2022/04/08 00:34:28;;;;;;;13.18;0.95;;;5.40;99.90;;;;;;4985919;28;20049;-65
2022/04/08 00:36:55;;;;;;;5.65;0.90;;;5.40;99.90;;;;;;5021932;28;20049;-65
2022/04/08 00:39:21;;;;;;;5.80;0.90;;;5.40;99.90;;;;;;5017266;28;20389;-66
2022/04/08 00:41:47;;;;;;;3.35;0.60;;;5.40;99.90;;;;;;5020970;28;20052;-65
2022/04/08 00:44:13;;;;;;;2.35;0.10;;;5.40;99.90;;;;;;5021569;28;20041;-65
2022/04/08 00:46:39;;;;;;;6.80;0.30;;;5.40;99.90;;;;;;5021069;28;20033;-65
2022/04/08 00:49:05;;;;;;;4.68;0.40;;;5.20;99.90;;;;;;5024074;28;20077;-65
2022/04/08 00:51:34;;;;;;;2.60;0.30;;;5.20;99.90;;;;;;5019132;28;20188;-65
2022/04/08 00:54:01;;;;;;;3.58;0.50;;;5.10;99.90;;;;;;5021163;28;20405;-65
2022/04/08 00:56:31;;;;;;;3.42;0.50;;;5.10;99.90;;;;;;5003893;28;20124;-65
2022/04/08 00:58:57;;;;;;;3.95;0.38;;;5.00;99.90;;;;;;5020546;28;20048;-65
2022/04/08 01:01:24;;;;;;;2.47;0.35;;;5.00;99.90;;;;;;5020321;28;20041;-65
2022/04/08 01:03:52;;;;;;;2.88;0.30;;;4.90;99.90;;;;;;5021999;28;20037;-65
2022/04/08 01:06:21;;;;;;;2.88;0.35;;;4.80;99.90;;;;;;4988153;28;20489;-65
2022/04/08 01:08:52;;;;;;;1.60;0.30;;;4.80;99.90;;;;;;5027119;28;20085;-66
2022/04/08 01:11:18;;;;;;;7.63;0.73;;;4.70;99.90;;;;;;5022568;28;21016;-65
2022/04/08 01:13:44;;;;;;;5.20;1.15;;;4.70;99.90;;;;;;5010609;28;20809;-65
2022/04/08 01:16:10;;;;;;;3.50;0.52;;;4.70;99.90;;;;;;5025319;28;20082;-65
2022/04/08 01:18:36;;;;;;;7.13;0.60;;;4.60;99.90;;;;;;5025082;28;20072;-65
2022/04/08 01:21:04;;;;;;;3.90;0.40;;;4.60;99.90;;;;;;5024098;28;20044;-65
2022/04/08 01:23:32;;;;;;;4.78;0.63;;;4.60;99.90;;;;;;5022076;28;20480;-65
2022/04/08 01:25:58;;;;;;;4.90;0.63;;;4.50;99.90;;;;;;5019714;28;20037;-65
2022/04/08 01:28:25;;;;;;;7.32;1.15;;;4.40;99.90;;;;;;5024921;28;20165;-65
2022/04/08 01:30:51;;;;;;;6.88;1.10;;;4.30;99.90;;;;;;5023049;28;20053;-65
2022/04/08 01:33:17;;;;;;;5.10;0.68;;;4.30;99.90;;;;;;5023171;28;20052;-65
2022/04/08 01:35:42;;;;;;;8.10;1.10;;;4.20;99.90;;;;;;5023856;28;20120;-65
2022/04/08 01:38:09;;;;;;;9.00;0.90;;;4.20;99.90;;;;;;5024292;28;20041;-65
2022/04/08 01:40:35;;;;;;;4.45;0.60;;;4.20;99.90;;;;;;5003822;28;20060;-65
2022/04/08 01:43:01;;;;;;;8.88;0.75;;;4.10;99.90;;;;;;5007677;28;20354;-65
2022/04/08 01:45:26;;;;;;;5.65;0.88;;;4.10;99.90;;;;;;5025393;28;20045;-66
2022/04/08 01:47:52;;;;;;;10.80;0.90;;;4.00;99.90;;;;;;5023963;28;20049;-66
2022/04/08 01:50:20;;;;;;;5.45;0.60;;;4.00;99.90;;;;;;5022323;28;20054;-66
2022/04/08 01:52:46;;;;;;;7.68;0.73;;;4.10;99.90;;;;;;5024676;28;20037;-66
2022/04/08 01:55:12;;;;;;;4.40;0.73;;;4.00;99.90;;;;;;5005706;28;20457;-66
2022/04/08 01:57:38;;;;;;;8.40;1.55;;;4.00;99.90;;;;;;5024978;28;20041;-66
2022/04/08 02:00:05;;;;;;;5.90;0.77;;;4.00;99.90;;;;;;5008184;28;20129;-66
2022/04/08 02:02:30;;;;;;;5.30;1.02;;;3.90;99.90;;;;;;5022211;28;20044;-66
2022/04/08 02:04:56;;;;;;;7.13;0.60;;;3.90;99.90;;;;;;5021661;28;20033;-66
2022/04/08 02:07:22;;;;;;;9.13;0.98;;;3.80;99.90;;;;;;5003820;28;20119;-66
2022/04/08 02:09:48;;;;;;;4.57;0.70;;;3.70;99.90;;;;;;5025228;28;20042;-66
2022/04/08 02:12:13;;;;;;;11.80;1.08;;;3.60;99.90;;;;;;5020229;28;20049;-66
2022/04/08 02:14:39;;;;;;;9.32;1.20;;;3.60;99.90;;;;;;5025060;28;20061;-66
2022/04/08 02:17:05;;;;;;;9.13;0.93;;;3.60;99.90;;;;;;5021018;28;20548;-66
2022/04/08 02:19:30;;;;;;;6.63;0.95;;;3.60;99.90;;;;;;5021401;28;20045;-66
2022/04/08 02:21:58;;;;;;;7.80;0.90;;;3.50;99.90;;;;;;5021658;28;20045;-66
2022/04/08 02:24:25;;;;;;;7.15;0.80;;;3.50;99.90;;;;;;5007654;28;20068;-66
2022/04/08 02:26:50;;;;;;;7.93;0.95;;;3.40;99.90;;;;;;5020828;28;20090;-66
2022/04/08 02:29:16;;;;;;;8.43;0.93;;;3.40;99.90;;;;;;5022733;28;20033;-66
2022/04/08 02:31:42;;;;;;;9.57;1.17;;;3.30;99.90;;;;;;5025850;28;20042;-65
2022/04/08 02:34:07;;;;;;;7.65;0.90;;;3.30;99.90;;;;;;5022477;28;20533;-65
2022/04/08 02:36:33;;;;;;;7.63;0.98;;;3.30;99.90;;;;;;5025206;28;20065;-65
2022/04/08 02:38:59;;;;;;;10.05;0.95;;;3.30;99.90;;;;;;5024545;28;20060;-65
2022/04/08 02:41:25;;;;;;;13.80;1.45;;;3.40;99.90;;;;;;5024263;28;20046;-66
2022/04/08 02:43:51;;;;;;;7.90;1.05;;;3.40;99.90;;;;;;5005289;28;20050;-66
2022/04/08 02:46:16;;;;;;;7.05;0.88;;;3.50;99.90;;;;;;5022308;28;20052;-65
2022/04/08 02:48:42;;;;;;;9.75;1.08;;;3.50;99.90;;;;;;5023998;28;20099;-64
2022/04/08 02:51:08;;;;;;;9.57;1.20;;;3.60;99.90;;;;;;5023438;28;20056;-64
2022/04/08 02:53:34;;;;;;;8.10;1.33;;;3.60;99.90;;;;;;5023154;28;20113;-64
2022/04/08 02:55:59;;;;;;;5.65;0.75;;;3.70;99.90;;;;;;5022885;28;20033;-64
2022/04/08 02:58:27;;;;;;;8.93;1.20;;;3.60;99.90;;;;;;5006706;28;20684;-65
2022/04/08 03:00:52;;;;;;;11.13;1.50;;;3.70;99.90;;;;;;5023019;28;20724;-65
2022/04/08 03:03:18;;;;;;;8.70;1.45;;;3.70;99.90;;;;;;5023416;28;20107;-65
2022/04/08 03:05:44;;;;;;;7.55;0.95;;;3.70;99.90;;;;;;5020833;28;20478;-65
2022/04/08 03:08:09;;;;;;;6.10;1.40;;;3.80;99.90;;;;;;5023720;28;20354;-64
2022/04/08 03:10:35;;;;;;;9.07;0.95;;;3.70;99.90;;;;;;5021231;28;20378;-65
2022/04/08 03:13:01;;;;;;;8.40;1.02;;;3.60;99.90;;;;;;5018476;28;20422;-65
2022/04/08 03:15:26;;;;;;;12.50;1.60;;;3.60;99.90;;;;;;5021991;28;20128;-65
2022/04/08 03:17:52;;;;;;;11.05;0.90;;;3.60;99.90;;;;;;5020230;28;20405;-65
2022/04/08 03:20:18;;;;;;;9.20;1.10;;;3.50;99.90;;;;;;5004272;28;20049;-65
2022/04/08 03:22:44;;;;;;;12.15;2.22;;;3.50;99.90;;;;;;5021211;28;20447;-65
2022/04/08 03:25:10;;;;;;;10.75;1.20;;;3.60;99.90;;;;;;5022644;28;20106;-65
2022/04/08 03:27:35;;;;;;;8.38;0.90;;;3.60;99.90;;;;;;5001786;28;20056;-65
2022/04/08 03:30:01;;;;;;;10.07;1.30;;;3.60;99.90;;;;;;5020084;28;20393;-65
2022/04/08 03:32:27;;;;;;;9.98;1.35;;;3.60;99.90;;;;;;5018009;28;20073;-65
2022/04/08 03:34:57;;;;;;;7.93;1.45;;;3.60;99.90;;;;;;5005623;28;20095;-66
2022/04/08 03:37:24;;;;;;;8.50;0.95;;;3.70;99.90;;;;;;5021941;28;20488;-66
2022/04/08 03:39:50;;;;;;;12.00;1.00;;;3.70;99.90;;;;;;5021023;28;20512;-65
2022/04/08 03:42:15;;;;;;;6.03;0.90;;;3.80;99.90;;;;;;5004782;28;20064;-66
2022/04/08 03:44:41;;;;;;;6.28;1.08;;;3.80;99.90;;;;;;5019912;28;20042;-66
2022/04/08 03:47:07;;;;;;;6.13;1.08;;;3.80;99.90;;;;;;5020499;28;20563;-65
2022/04/08 03:49:35;;;;;;;9.15;1.30;;;3.80;99.90;;;;;;5024070;28;20088;-65
2022/04/08 03:52:04;;;;;;;11.13;0.98;;;3.80;99.90;;;;;;5004500;28;20520;-65
2022/04/08 03:54:30;;;;;;;8.68;1.38;;;3.80;99.90;;;;;;5020985;28;20166;-65
2022/04/08 03:56:56;;;;;;;6.18;1.00;;;3.80;99.90;;;;;;5002423;28;20049;-65
2022/04/08 03:59:22;;;;;;;5.18;0.80;;;3.80;99.90;;;;;;5022867;28;20621;-65
2022/04/08 04:01:49;;;;;;;10.65;1.38;;;3.90;99.90;;;;;;5019501;28;20053;-65
2022/04/08 04:04:15;;;;;;;5.13;0.80;;;3.90;99.90;;;;;;5018331;28;20228;-65
2022/04/08 04:06:41;;;;;;;5.60;0.90;;;3.90;99.90;;;;;;5017939;28;20100;-65
2022/04/08 04:09:07;;;;;;;8.25;1.15;;;4.00;99.90;;;;;;5020018;28;20041;-65
2022/04/08 04:11:33;;;;;;;7.18;1.05;;;4.00;99.90;;;;;;5018587;28;20041;-65
2022/04/08 04:14:00;;;;;;;8.82;1.10;;;4.00;99.90;;;;;;5023991;28;20037;-65
2022/04/08 04:16:26;;;;;;;4.07;0.73;;;3.90;99.90;;;;;;5007459;28;20115;-65
2022/04/08 04:18:52;;;;;;;8.25;1.02;;;3.90;99.90;;;;;;5024612;28;20042;-65
2022/04/08 04:21:18;;;;;;;3.88;0.47;;;3.90;99.90;;;;;;5023813;28;20037;-65
2022/04/08 04:23:44;;;;;;;9.02;0.95;;;3.90;99.90;;;;;;4989003;28;20041;-65
2022/04/08 04:26:09;;;;;;;6.72;0.70;;;3.80;99.90;;;;;;5003914;28;20536;-65
2022/04/08 04:28:35;;;;;;;6.63;1.00;;;3.80;99.90;;;;;;5024447;28;20477;-65
2022/04/08 04:31:03;;;;;;;6.13;0.90;;;3.80;99.90;;;;;;5022215;28;20095;-65
2022/04/08 04:33:29;;;;;;;7.10;0.93;;;3.80;99.90;;;;;;5021758;28;20037;-65
2022/04/08 04:35:55;;;;;;;5.00;0.65;;;3.70;99.90;;;;;;5023423;28;20044;-66
2022/04/08 04:38:22;;;;;;;4.18;0.77;;;3.60;99.90;;;;;;5003213;28;20029;-66
2022/04/08 04:40:47;;;;;;;5.07;1.00;;;3.60;99.90;;;;;;5011951;28;20042;-66
2022/04/08 04:43:13;;;;;;;7.40;0.90;;;3.50;99.90;;;;;;5026992;28;20116;-66
2022/04/08 04:45:39;;;;;;;5.95;0.60;;;3.60;99.90;;;;;;5019405;28;20192;-66
2022/04/08 04:48:06;;;;;;;5.75;0.63;;;3.40;99.90;;;;;;5022679;28;20129;-66
2022/04/08 04:50:32;;;;;;;5.40;0.73;;;3.40;99.90;;;;;;5019773;28;20252;-66
2022/04/08 04:52:57;;;;;;;8.77;0.93;;;3.40;99.90;;;;;;5003517;28;20125;-66
2022/04/08 04:55:23;;;;;;;6.18;0.85;;;3.30;99.90;;;;;;5022391;28;20038;-66
2022/04/08 04:57:49;;;;;;;5.15;0.77;;;3.30;99.90;;;;;;4999630;28;20849;-66
2022/04/08 05:00:16;;;;;;;5.45;0.77;;;3.40;99.90;;;;;;5022465;28;20057;-66
2022/04/08 05:02:43;;;;;;;5.78;0.60;;;3.40;99.90;;;;;;5014229;28;20045;-66
2022/04/08 05:05:09;;;;;;;9.77;0.88;;;3.40;99.90;;;;;;5005769;28;20117;-65
2022/04/08 05:07:35;;;;;;;3.90;0.60;;;3.40;99.90;;;;;;5011868;28;20064;-66
2022/04/08 05:10:03;;;;;;;3.20;0.60;;;3.30;99.90;;;;;;5023169;28;20054;-66
2022/04/08 05:12:28;;;;;;;5.13;1.00;;;3.30;99.90;;;;;;5003701;28;20473;-66
2022/04/08 05:14:54;;;;;;;7.53;1.20;;;3.30;99.90;;;;;;5004961;28;20080;-66
2022/04/08 05:17:20;;;;;;;5.63;0.80;;;3.30;99.90;;;;;;5022744;28;20092;-66
2022/04/08 05:19:45;;;;;;;4.15;0.80;;;3.40;99.90;;;;;;5026296;28;20103;-66
2022/04/08 05:22:11;;;;;;;3.45;0.40;;;3.40;99.90;;;;;;5022602;28;20050;-66
2022/04/08 05:24:37;;;;;;;3.10;0.82;;;3.50;99.90;;;;;;5025850;28;20037;-66
2022/04/08 05:27:05;;;;;;;5.45;1.00;;;3.50;99.90;;;;;;5005889;28;20076;-66
2022/04/08 05:29:30;;;;;;;4.90;1.05;;;3.60;99.90;;;;;;5023479;28;20400;-66
2022/04/08 05:31:56;;;;;;;8.20;1.13;;;3.70;99.90;;;;;;5023043;28;20123;-66
2022/04/08 05:34:22;;;;;;;7.80;0.98;;;3.80;99.90;;;;;;5024788;28;20396;-66
2022/04/08 05:36:48;;;;;;;5.05;0.90;;;3.70;99.90;;;;;;5029949;28;20334;-66
2022/04/08 05:39:13;;;;;;;4.10;0.55;;;3.80;99.90;;;;;;5027662;28;20341;-66
2022/04/08 05:41:39;;;;;;;2.00;0.35;;;3.80;99.90;;;;;;5028150;28;20068;-66
2022/04/08 05:44:05;;;;;;;3.47;0.60;;;3.70;99.90;;;;;;5003753;28;20065;-66
2022/04/08 05:46:31;;;;;;;4.38;0.40;;;3.60;99.90;;;;;;5025514;28;20048;-66
2022/04/08 05:48:56;;;;;;;2.22;0.65;;;3.60;99.90;;;;;;5024292;28;20446;-66
2022/04/08 05:51:22;;;;;;;3.78;0.40;;;3.60;99.90;;;;;;5021715;28;20072;-66
2022/04/08 05:53:48;;;;;;;3.03;0.85;;;3.60;99.90;;;;;;5023414;28;20057;-66
2022/04/08 05:56:14;;;;;;;3.03;0.45;;;3.60;99.90;;;;;;5024438;28;20041;-66
2022/04/08 05:58:39;;;;;;;2.42;0.47;;;3.60;99.90;;;;;;5025737;28;20030;-66
2022/04/08 06:01:05;;;;;;;3.63;0.60;;;3.70;99.90;;;;;;5004733;28;20129;-66
2022/04/08 06:03:30;;;;;;;2.35;0.50;;;3.70;99.90;;;;;;5029726;28;20044;-66
2022/04/08 06:05:56;;;;;;;2.15;0.50;;;3.70;99.90;;;;;;5007155;28;20410;-66
2022/04/08 06:08:22;;;;;;;2.22;0.82;;;3.80;99.90;;;;;;5029949;28;20041;-66
2022/04/08 06:10:48;;;;;;;2.53;0.60;;;3.70;99.90;;;;;;5024155;28;20049;-67
2022/04/08 06:13:14;;;;;;;2.53;0.68;;;3.70;99.90;;;;;;5007565;28;20045;-66
2022/04/08 06:15:40;;;;;;;2.72;0.73;;;3.70;99.90;;;;;;5025869;28;20485;-65
2022/04/08 06:18:08;;;;;;;3.22;0.55;;;3.60;99.90;;;;;;5029945;28;20046;-66
2022/04/08 06:20:33;;;;;;;2.03;0.60;;;3.60;99.90;;;;;;5025882;28;20038;-66
2022/04/08 06:22:59;;;;;;;3.35;0.70;;;3.60;99.90;;;;;;5030052;28;20041;-66
2022/04/08 06:25:25;;;;;;;5.28;0.57;;;3.60;99.90;;;;;;5026939;28;20099;-66
2022/04/08 06:28:04;;;;;;;2.10;0.75;;;3.70;99.90;;;;;;5027285;28;20042;-65
2022/04/08 06:30:32;;;;;;;1.00;0.50;;;3.70;99.90;;;;;;5010268;28;20112;-66
2022/04/08 06:32:57;;;;;;;1.88;0.50;;;3.70;99.90;;;;;;5026139;28;20037;-66
2022/04/08 06:35:23;;;;;;;2.28;0.65;;;3.80;99.90;;;;;;5027315;28;20056;-66
2022/04/08 06:37:49;;;;;;;3.58;0.90;;;3.90;99.90;;;;;;5027516;28;20037;-66
2022/04/08 06:40:15;;;;;;;1.95;0.50;;;4.00;99.90;;;;;;5018839;28;20046;-66
2022/04/08 06:42:41;;;;;;;2.50;0.40;;;4.10;99.90;;;;;;5027323;28;20509;-66
2022/04/08 06:45:08;;;;;;;4.15;0.52;;;4.20;99.90;;;;;;5018603;28;20159;-66
2022/04/08 06:47:44;;;;;;;2.92;0.63;;;4.40;99.90;;;;;;5025852;28;20038;-65
2022/04/08 06:50:10;;;;;;;1.85;0.50;;;4.60;99.90;;;;;;5002523;28;20041;-65
2022/04/08 06:52:36;;;;;;;3.60;0.82;;;4.70;99.90;;;;;;5023378;28;20088;-65
2022/04/08 06:55:01;;;;;;;3.05;0.50;;;4.80;99.90;;;;;;5020366;28;20612;-65
2022/04/08 06:57:27;;;;;;;2.03;0.40;;;4.80;99.90;;;;;;5028433;28;20044;-66
2022/04/08 06:59:53;;;;;;;4.03;0.52;;;4.80;99.90;;;;;;5023555;28;20060;-66
2022/04/08 07:02:18;;;;;;;4.15;0.60;;;4.70;99.90;;;;;;5023941;28;20077;-66
2022/04/08 07:04:44;;;;;;;5.07;0.80;;;4.80;99.90;;;;;;5026494;28;20048;-66
2022/04/08 07:07:10;;;;;;;3.33;0.50;;;4.80;99.90;;;;;;5029170;28;20128;-66
2022/04/08 07:09:35;;;;;;;4.50;1.00;;;4.90;99.90;;;;;;5025991;28;20176;-66
2022/04/08 07:12:02;;;;;;;3.55;0.40;;;5.20;99.90;;;;;;5025129;28;20037;-66
2022/04/08 07:14:28;;;;;;;1.95;0.25;;;5.40;99.90;;;;;;5026496;28;20042;-66
2022/04/08 07:16:54;;;;;;;4.68;0.68;;;5.60;99.90;;;;;;5022280;28;20420;-66
2022/04/08 07:19:19;;;;;;;2.00;0.40;;;6.00;99.90;;;;;;5024820;28;20065;-66
2022/04/08 07:21:45;;;;;;;2.22;0.30;;;6.50;99.90;;;;;;5023257;28;20549;-66
2022/04/08 07:24:10;;;;;;;3.38;0.68;;;7.10;99.90;;;;;;5020175;28;20088;-66
2022/04/08 07:26:44;;;;;;;5.28;0.98;;;7.70;99.90;;;;;;5095241;27;20412;-65
2022/04/08 07:29:09;;;;;;;5.45;1.10;;;8.20;99.90;;;;;;5084248;28;20122;-65
2022/04/08 07:31:36;;;;;;;5.07;0.60;;;8.50;99.90;;;;;;5084490;28;20077;-66
2022/04/08 07:34:02;;;;;;;5.65;1.40;;;8.70;99.90;;;;;;5081936;28;20418;-66
2022/04/08 07:36:28;;;;;;;4.63;0.90;;;8.70;99.90;;;;;;5114580;28;20059;-66
2022/04/08 07:38:53;;;;;;;4.43;0.82;;;8.40;99.90;;;;;;5066809;28;20540;-66
2022/04/08 07:41:19;;;;;;;7.22;1.40;;;8.10;99.90;;;;;;5065994;28;20037;-66
2022/04/08 07:43:45;;;;;;;6.80;1.30;;;7.80;99.90;;;;;;5082336;28;20090;-66
2022/04/08 07:46:10;;;;;;;6.43;1.02;;;7.50;99.90;;;;;;5062807;28;20063;-66
2022/04/08 07:48:36;;;;;;;5.65;0.95;;;7.20;99.90;;;;;;5063831;28;20043;-66
2022/04/08 07:51:02;;;;;;;6.13;1.25;;;6.80;99.90;;;;;;5066586;28;20439;-66
2022/04/08 07:53:28;;;;;;;3.45;0.90;;;6.50;99.90;;;;;;5067214;28;20076;-66
2022/04/08 07:55:54;;;;;;;9.95;1.20;;;6.20;99.90;;;;;;5064715;28;20062;-66
2022/04/08 07:58:20;;;;;;;8.50;1.55;;;6.00;99.90;;;;;;5066603;28;20052;-66
2022/04/08 08:00:45;;;;;;;4.60;1.30;;;5.80;99.90;;;;;;5063004;28;20118;-66
2022/04/08 08:03:15;;;;;;;4.97;1.20;;;5.80;99.90;;;;;;5066569;28;20476;-66
2022/04/08 08:05:40;;;;;;;7.95;1.02;;;5.90;99.90;;;;;;5064675;28;20120;-66
2022/04/08 08:08:06;;;;;;;5.35;1.10;;;6.80;99.90;;;;;;5066778;28;20120;-66
2022/04/08 08:10:35;;;;;;;8.65;0.73;;;8.00;99.90;;;;;;5065939;28;20127;-66
2022/04/08 08:13:01;;;;;;;5.82;1.05;;;8.80;99.90;;;;;;5065806;28;20048;-66
2022/04/08 08:15:29;;;;;;;7.15;0.75;;;9.20;99.90;;;;;;5066104;28;20039;-66
2022/04/08 08:17:57;;;;;;;7.32;1.00;;;9.70;99.90;;;;;;5063983;28;20041;-66
2022/04/08 08:20:24;;;;;;;6.50;1.73;;;10.30;99.90;;;;;;5063242;28;20416;-66
2022/04/08 08:22:50;;;;;;;5.10;1.02;;;10.60;99.90;;;;;;5063301;28;20057;-66
2022/04/08 08:25:17;;;;;;;5.35;1.02;;;10.90;99.90;;;;;;5064599;28;20474;-67
2022/04/08 08:27:48;;;;;;;4.50;0.60;;;11.40;99.90;;;;;;5065446;28;20511;-67
2022/04/08 08:30:16;;;;;;;4.60;0.75;;;11.80;99.90;;;;;;5063669;28;20109;-67
2022/04/08 08:32:47;;;;;;;3.85;0.85;;;12.10;99.90;;;;;;5064604;28;20029;-67
2022/04/08 08:35:14;;;;;;;3.50;0.70;;;12.30;99.90;;;;;;5063444;28;20056;-67
2022/04/08 08:37:40;;;;;;;3.70;0.77;;;12.50;99.90;;;;;;5053864;28;20472;-67
2022/04/08 08:40:08;;;;;;;4.55;0.65;;;12.50;99.90;;;;;;5050575;28;20048;-67
2022/04/08 08:42:37;;;;;;;5.30;0.80;;;12.60;99.90;;;;;;5051586;28;20134;-67
2022/04/08 08:45:05;;;;;;;5.03;1.00;;;12.60;99.90;;;;;;5050051;28;20091;-67
2022/04/08 08:47:30;;;;;;;2.85;0.65;;;12.80;99.90;;;;;;5050135;28;20033;-68
2022/04/08 08:49:57;;;;;;;3.35;0.73;;;12.90;99.90;;;;;;5050241;28;20075;-68
2022/04/08 08:52:23;;;;;;;4.00;0.60;;;13.20;99.90;;;;;;5048809;28;20473;-68
2022/04/08 08:54:50;;;;;;;3.65;0.70;;;13.30;99.90;;;;;;5051974;28;20124;-68
2022/04/08 08:57:17;;;;;;;4.70;0.95;;;13.40;99.90;;;;;;5049253;28;20095;-68
2022/04/08 08:59:44;;;;;;;5.65;1.05;;;13.70;99.90;;;;;;5050108;28;20485;-68
2022/04/08 09:02:12;;;;;;;4.10;0.80;;;13.60;99.90;;;;;;5050502;28;20041;-68
2022/04/08 09:04:42;;;;;;;4.85;0.88;;;13.00;99.90;;;;;;5050247;28;20068;-68
2022/04/08 09:07:23;;;;;;;5.00;1.00;;;12.30;99.90;;;;;;5051397;28;20040;-68
2022/04/08 09:09:54;;;;;;;5.95;1.05;;;11.60;99.40;;;;;;5032344;28;20051;-68
2022/04/08 09:12:22;;;;;;;8.82;1.20;;;11.50;99.90;;;;;;5050136;28;20527;-69
2022/04/08 09:14:49;;;;;;;7.68;1.15;;;12.10;99.90;;;;;;5049753;28;20120;-68
2022/04/08 09:17:19;;;;;;;7.35;1.30;;;12.80;99.90;;;;;;5050306;28;20564;-69
2022/04/08 09:19:49;;;;;;;9.30;1.70;;;13.30;99.90;;;;;;5051288;28;20131;-68
2022/04/08 09:22:16;;;;;;;5.88;1.42;;;13.20;99.70;;;;;;5047340;28;20615;-68
2022/04/08 09:24:43;;;;;;;7.97;1.70;;;12.40;98.60;;;;;;5049508;28;20053;-69
2022/04/08 09:27:10;;;;;;;11.15;1.98;;;12.20;99.10;;;;;;5049646;28;20120;-68
2022/04/08 09:29:36;;;;;;;12.15;2.17;;;11.80;98.80;;;;;;5049850;28;20139;-68
2022/04/08 09:32:08;;;;;;;11.05;2.10;;;11.30;98.40;;;;;;5050868;28;20547;-68
2022/04/08 09:34:34;;;;;;;10.15;2.20;;;10.90;99.00;;;;;;5084729;28;20531;-69
2022/04/08 09:37:07;;;;;;;8.70;1.88;;;10.50;99.50;;;;;;5051526;28;20040;-68
2022/04/08 09:39:33;;;;;;;11.50;1.87;;;10.00;98.30;;;;;;5050195;28;20118;-69
2022/04/08 09:42:03;;;;;;;8.07;2.58;;;9.70;99.50;;;;;;5051491;28;20032;-69
2022/04/08 09:44:29;;;;;;;9.52;2.30;;;9.30;99.90;;;;;;5051232;28;20119;-69
2022/04/08 09:46:55;;;;;;;12.68;2.25;;;9.00;99.90;;;;;;5048706;28;20148;-69
2022/04/08 09:49:21;;;;;;;8.02;2.00;;;8.80;99.90;;;;;;5050181;28;20043;-69
2022/04/08 09:51:50;;;;;;;11.30;1.73;;;8.70;99.90;;;;;;5050433;28;20057;-69
2022/04/08 09:54:20;;;;;;;7.72;2.15;;;8.60;99.90;;;;;;5048127;28;20121;-69
2022/04/08 09:56:46;;;;;;;8.10;1.67;;;8.50;99.90;;;;;;5049208;28;20060;-68
2022/04/08 09:59:14;;;;;;;9.57;1.92;;;8.40;99.90;;;;;;5050907;28;20045;-68
2022/04/08 10:01:43;;;;;;;9.38;1.95;;;8.10;99.90;;;;;;5048613;28;20250;-68
2022/04/08 10:04:10;;;;;;;11.05;2.20;;;8.00;99.90;;;;;;5049684;28;20064;-68
2022/04/08 10:06:37;;;;;;;10.25;1.77;;;7.80;99.90;;;;;;5049398;28;20048;-68
2022/04/08 10:09:12;;;;;;;11.52;2.10;;;8.00;99.90;;;;;;5049241;28;20314;-68
2022/04/08 10:12:02;;;;;;;13.15;1.98;;;8.30;99.90;;;;;;5050373;28;20041;-68
2022/04/08 10:14:46;;;;;;;9.68;2.05;;;8.30;99.90;;;;;;5059434;28;20056;-68
2022/04/08 10:17:14;;;;;;;10.02;2.33;;;8.30;99.90;;;;;;5048099;28;20110;-68
2022/04/08 10:19:39;;;;;;;13.48;1.90;;;8.30;99.90;;;;;;5049083;28;20566;-68
2022/04/08 10:22:16;;;;;;;8.90;1.42;;;8.20;99.90;;;;;;5047776;28;20073;-68
2022/04/08 10:24:54;;;;;;;7.97;1.60;;;8.10;99.90;;;;;;5049487;28;20099;-68
2022/04/08 10:27:31;;;;;;;9.25;1.58;;;8.10;99.90;;;;;;5049809;28;20045;-68
2022/04/08 10:29:57;;;;;;;5.35;1.38;;;8.00;99.90;;;;;;5032869;28;20079;-68
2022/04/08 10:32:23;;;;;;;8.43;1.42;;;7.80;99.90;;;;;;5047962;28;20477;-68
2022/04/08 10:34:49;;;;;;;5.00;1.10;;;7.60;99.90;;;;;;5050800;28;20052;-68
2022/04/08 10:37:24;;;;;;;6.05;1.52;;;7.30;99.90;;;;;;5045307;28;20045;-68
2022/04/08 10:39:56;;;;;;;;;;;7.00;99.90;;;;;;5050012;28;20412;-67
2022/04/08 10:42:23;;;;;;;6.80;1.35;;;6.80;99.90;;;;;;5049762;28;19931;-67
2022/04/08 10:44:50;;;;;;;8.23;1.38;;;6.60;99.90;;;;;;5050267;28;20071;-67
2022/04/08 10:47:18;;;;;;;6.57;1.40;;;6.40;99.90;;;;;;5048409;28;20075;-67
2022/04/08 10:49:56;;;;;;;7.25;1.05;;;6.30;99.90;;;;;;5049628;28;20445;-67
2022/04/08 10:52:38;;;;;;;6.97;1.40;;;6.20;99.90;;;;;;5048589;28;20106;-67
2022/04/08 10:55:13;;;;;;;5.20;0.77;;;6.20;99.90;;;;;;5051616;28;20049;-67
2022/04/08 10:57:57;;;;;;;4.70;0.80;;;6.10;99.90;;;;;;5050143;28;20399;-67
2022/04/08 11:00:24;;;;;;;3.67;0.85;;;6.10;99.90;;;;;;5049841;28;20033;-67
2022/04/08 11:02:54;;;;;;;7.50;1.55;;;6.10;99.90;;;;;;5048380;28;20533;-67
2022/04/08 11:05:20;;;;;;;7.20;1.05;;;6.20;99.90;;;;;;5051485;28;20037;-67
2022/04/08 11:07:48;;;;;;;7.43;1.00;;;6.20;99.90;;;;;;5047860;28;20095;-67
2022/04/08 11:10:20;;;;;;;6.75;1.55;;;6.40;99.90;;;;;;5051200;28;20033;-67
2022/04/08 11:12:51;;;;;;;7.85;1.15;;;6.60;99.90;;;;;;5050623;28;20039;-68
2022/04/08 11:15:24;;;;;;;4.47;1.25;;;6.80;99.90;;;;;;5051205;28;20110;-68
2022/04/08 11:17:51;;;;;;;4.05;1.15;;;7.20;99.90;;;;;;5048982;28;20120;-68
2022/04/08 11:20:22;;;;;;;6.53;1.08;;;7.60;99.90;;;;;;5049340;28;20516;-67
2022/04/08 11:22:55;;;;;;;7.45;1.33;;;8.00;99.90;;;;;;5049601;28;22706;-67
2022/04/08 11:25:30;;;;;;;6.70;1.00;;;8.30;99.90;;;;;;5049866;28;20068;-68
2022/04/08 11:28:01;;;;;;;9.27;1.30;;;8.90;99.90;;;;;;5048587;28;20053;-68
2022/04/08 11:30:28;;;;;;;7.80;1.27;;;9.40;99.90;;;;;;5050330;28;20139;-68
2022/04/08 11:32:53;;;;;;;4.43;0.80;;;9.70;99.90;;;;;;5051946;28;20120;-68
2022/04/08 11:35:19;;;;;;;6.57;1.08;;;10.00;99.90;;;;;;5050757;28;20115;-69
2022/04/08 11:37:45;;;;;;;4.25;1.00;;;10.40;99.90;;;;;;5044488;28;20360;-69
2022/04/08 11:40:17;;;;;;;4.10;0.68;;;10.80;99.90;;;;;;5047602;28;20048;-69
2022/04/08 11:42:46;;;;;;;4.70;0.98;;;11.20;99.90;;;;;;5048380;28;20040;-69
2022/04/08 11:45:13;;;;;;;4.93;0.70;;;11.40;99.90;;;;;;5047185;28;20049;-69
2022/04/08 11:47:46;;;;;;;4.57;0.70;;;11.60;99.90;;;;;;5045968;28;20133;-69
2022/04/08 11:50:12;;;;;;;6.50;0.73;;;11.60;98.50;;;;;;5049777;28;20063;-69
2022/04/08 11:52:38;;;;;;;5.15;0.70;;;11.60;99.90;;;;;;5048160;28;20087;-69
2022/04/08 11:55:05;;;;;;;5.82;1.05;;;11.50;99.20;;;;;;5049316;28;20067;-68
2022/04/08 11:57:33;;;;;;;4.95;0.88;;;11.30;98.60;;;;;;5045143;28;20552;-69
2022/04/08 12:00:03;;;;;;;6.18;1.10;;;11.20;99.20;;;;;;5060764;28;20453;-69
2022/04/08 12:02:31;;;;;;;6.72;1.20;;;11.30;98.60;;;;;;5048682;28;20053;-69
2022/04/08 12:04:57;;;;;;;5.93;0.73;;;11.40;98.40;;;;;;5045140;28;20061;-69
2022/04/08 12:07:25;;;;;;;8.25;1.20;;;11.60;98.40;;;;;;5049467;28;20045;-69
2022/04/08 12:09:55;;;;;;;5.72;1.02;;;11.40;98.40;;;;;;5028497;28;20068;-69
2022/04/08 12:12:25;;;;;;;9.30;1.33;;;11.00;96.70;;;;;;5049389;28;20061;-68
2022/04/08 12:14:51;;;;;;;8.05;1.30;;;10.60;97.70;;;;;;5049547;28;20075;-69
2022/04/08 12:17:17;;;;;;;7.63;1.40;;;10.70;98.80;;;;;;5048976;28;20048;-68
2022/04/08 12:19:43;;;;;;;4.43;0.90;;;11.50;99.50;;;;;;5049175;28;20044;-68
2022/04/08 12:22:14;;;;;;;4.05;0.70;;;12.50;98.10;;;;;;5053226;28;20040;-68
2022/04/08 12:24:44;;;;;;;4.78;0.80;;;12.90;94.10;;;;;;5051655;28;20041;-69
2022/04/08 12:27:12;;;;;;;4.35;0.77;;;13.20;93.20;;;;;;5043048;28;20127;-69
2022/04/08 12:29:39;;;;;;;5.18;1.30;;;13.30;93.30;;;;;;5049016;28;20033;-68
2022/04/08 12:32:12;;;;;;;5.57;0.90;;;12.80;91.90;;;;;;5049498;28;20558;-68
2022/04/08 12:34:38;;;;;;;6.43;1.40;;;12.30;91.20;;;;;;5048732;28;20060;-69
2022/04/08 12:37:04;;;;;;;4.40;0.70;;;12.10;93.10;;;;;;5049665;28;20451;-69
2022/04/08 12:39:29;;;;;;;3.67;0.45;;;12.40;93.50;;;;;;5049771;28;20049;-69
2022/04/08 12:41:59;;;;;;;3.75;0.88;;;12.80;92.60;;;;;;5052066;28;20041;-69
2022/04/08 12:44:25;;;;;;;4.43;0.50;;;13.10;91.60;;;;;;5035865;28;20090;-68
2022/04/08 12:46:52;;;;;;;2.47;0.50;;;13.40;91.70;;;;;;5056244;28;20050;-68
2022/04/08 12:49:18;;;;;;;2.78;0.55;;;13.60;91.00;;;;;;5049406;28;20057;-68
2022/04/08 12:51:43;;;;;;;1.80;0.60;;;13.80;87.30;;;;;;5048536;28;20109;-69
2022/04/08 12:54:11;;;;;;;1.80;0.63;;;13.70;85.10;;;;;;5048072;28;20481;-69